createdAt,value
2018-07-23T00:01:25.816Z,68.60
2018-07-23T00:03:55.885Z,68.50
2018-07-23T00:06:25.992Z,68.40
2018-07-23T00:08:56.088Z,68.40
2018-07-23T00:11:26.098Z,68.50
2018-07-23T00:13:56.147Z,68.20
2018-07-23T00:16:26.277Z,68.30
2018-07-23T00:18:56.349Z,68.40
2018-07-23T00:21:26.503Z,68.30
2018-07-23T00:23:56.556Z,67.90
2018-07-23T00:26:26.624Z,68.40
2018-07-23T00:28:56.768Z,68.10
2018-07-23T00:31:26.862Z,68.50
2018-07-23T00:33:56.923Z,68.00
2018-07-23T00:36:26.992Z,68.00
2018-07-23T00:38:56.990Z,68.50
2018-07-23T00:41:27.025Z,68.40
2018-07-23T00:43:57.103Z,67.80
2018-07-23T00:46:27.086Z,68.00
2018-07-23T00:48:57.064Z,68.00
2018-07-23T00:51:27.110Z,68.60
2018-07-23T00:53:57.147Z,68.40
2018-07-23T00:56:27.212Z,68.40
2018-07-23T00:58:57.158Z,68.10
2018-07-23T01:01:27.200Z,67.90
2018-07-23T01:03:57.247Z,68.40
2018-07-23T01:06:27.344Z,68.20
2018-07-23T01:08:57.495Z,68.20
2018-07-23T01:11:27.494Z,68.00
2018-07-23T01:13:57.540Z,67.90
2018-07-23T01:18:57.159Z,68.90
2018-07-23T01:21:27.548Z,68.40
2018-07-23T01:26:27.156Z,68.50
2018-07-23T01:28:57.208Z,68.40
2018-07-23T01:31:27.229Z,68.30
2018-07-23T01:33:57.339Z,69.20
2018-07-23T01:36:27.440Z,68.90
2018-07-23T01:38:57.471Z,68.70
2018-07-23T01:41:27.588Z,68.20
2018-07-23T01:43:57.709Z,68.10
2018-07-23T01:48:57.339Z,68.40
2018-07-23T01:51:27.460Z,68.20
2018-07-23T01:53:57.522Z,68.50
2018-07-23T01:56:27.546Z,68.90
2018-07-23T01:58:57.659Z,69.10
2018-07-23T02:01:27.712Z,68.90
2018-07-23T02:03:57.747Z,69.40
2018-07-23T02:06:27.843Z,69.10
2018-07-23T02:08:57.967Z,69.30
2018-07-23T02:11:28.052Z,69.30
2018-07-23T02:13:58.168Z,69.60
2018-07-23T02:16:28.328Z,70.10
2018-07-23T02:18:58.448Z,69.60
2018-07-23T02:21:28.544Z,69.60
2018-07-23T02:23:58.626Z,69.60
2018-07-23T02:26:28.718Z,69.40
2018-07-23T02:28:58.750Z,69.50
2018-07-23T02:31:28.877Z,69.40
2018-07-23T02:33:59.007Z,69.60
2018-07-23T02:36:29.100Z,70.00
2018-07-23T02:38:59.252Z,70.20
2018-07-23T02:41:29.296Z,72.50
2018-07-23T02:43:59.392Z,71.30
2018-07-23T02:46:29.520Z,72.00
2018-07-23T02:48:59.633Z,72.20
2018-07-23T02:51:29.752Z,73.10
2018-07-23T02:56:29.397Z,73.10
2018-07-23T02:58:59.492Z,74.00
2018-07-23T03:01:29.592Z,72.90
2018-07-23T03:03:59.689Z,72.20
2018-07-23T03:06:30.304Z,72.70
2018-07-23T03:09:00.410Z,72.60
2018-07-23T03:11:30.468Z,72.50
2018-07-23T03:14:00.602Z,72.00
2018-07-23T03:16:30.776Z,72.30
2018-07-23T03:21:30.361Z,70.90
2018-07-23T03:24:00.491Z,70.70
2018-07-23T03:26:30.613Z,70.70
2018-07-23T03:29:00.684Z,70.30
2018-07-23T03:31:30.762Z,70.10
2018-07-23T03:34:00.839Z,70.60
2018-07-23T03:36:31.015Z,70.70
2018-07-23T03:41:30.664Z,71.00
2018-07-23T03:44:00.804Z,71.10
2018-07-23T03:46:30.892Z,71.30
2018-07-23T03:49:00.967Z,71.30
2018-07-23T03:51:31.044Z,70.70
2018-07-23T03:54:01.216Z,70.40
2018-07-23T03:56:31.295Z,70.50
2018-07-23T03:59:01.424Z,70.30
2018-07-23T04:01:31.540Z,69.90
2018-07-23T04:04:01.700Z,70.10
2018-07-23T04:06:31.868Z,70.10
2018-07-23T04:09:01.912Z,69.90
2018-07-23T04:11:32.036Z,69.80
2018-07-23T04:14:02.171Z,69.70
2018-07-23T04:16:32.213Z,69.30
2018-07-23T04:19:02.299Z,70.10
2018-07-23T04:21:32.393Z,71.00
2018-07-23T04:24:02.512Z,70.80
2018-07-23T04:26:32.732Z,69.50
2018-07-23T04:31:32.308Z,68.80
2018-07-23T04:34:02.418Z,68.30
2018-07-23T04:36:32.559Z,68.20
2018-07-23T04:39:02.720Z,67.70
2018-07-23T04:41:32.856Z,67.40
2018-07-23T04:44:02.988Z,66.70
2018-07-23T04:46:33.088Z,66.50
2018-07-23T04:49:03.196Z,66.70
2018-07-23T04:51:33.259Z,66.40
2018-07-23T04:54:03.459Z,66.30
2018-07-23T04:56:33.561Z,66.20
2018-07-23T04:59:03.724Z,66.40
2018-07-23T05:01:33.837Z,65.90
2018-07-23T05:04:03.992Z,65.70
2018-07-23T05:06:34.060Z,65.50
2018-07-23T05:09:06.327Z,65.10
2018-07-23T05:11:36.512Z,65.00
2018-07-23T05:14:07.445Z,64.80
2018-07-23T05:16:37.668Z,64.50
2018-07-23T05:19:08.048Z,64.50
2018-07-23T05:21:38.195Z,64.70
2018-07-23T05:24:08.280Z,64.30
2018-07-23T05:26:38.364Z,64.60
2018-07-23T05:29:08.398Z,64.10
2018-07-23T05:31:38.584Z,64.00
2018-07-23T05:34:08.612Z,63.80
2018-07-23T05:36:38.701Z,63.20
2018-07-23T05:41:39.279Z,63.40
2018-07-23T05:44:09.419Z,63.80
2018-07-23T05:46:39.757Z,63.80
2018-07-23T05:49:10.068Z,63.30
2018-07-23T05:51:40.163Z,63.20
2018-07-23T05:54:10.255Z,62.10
2018-07-23T05:59:09.876Z,61.60
2018-07-23T06:01:39.946Z,60.80
2018-07-23T06:04:10.004Z,59.40
2018-07-23T06:06:40.106Z,60.00
2018-07-23T06:09:10.727Z,60.00
2018-07-23T06:11:40.776Z,59.10
2018-07-23T06:14:10.984Z,58.60
2018-07-23T06:16:41.092Z,58.70
2018-07-23T06:19:11.233Z,58.30
2018-07-23T06:21:41.304Z,57.90
2018-07-23T06:24:11.526Z,57.70
2018-07-23T06:26:41.766Z,56.90
2018-07-23T06:29:11.835Z,56.30
2018-07-23T06:34:11.517Z,56.50
2018-07-23T06:36:41.639Z,55.40
2018-07-23T06:39:12.133Z,54.90
2018-07-23T06:41:42.204Z,56.30
2018-07-23T06:44:12.296Z,53.00
2018-07-23T06:46:42.508Z,51.80
2018-07-23T06:49:12.560Z,52.80
2018-07-23T06:51:42.644Z,52.30
2018-07-23T06:54:12.743Z,51.70
2018-07-23T06:56:42.952Z,51.80
2018-07-23T06:59:13.035Z,51.90
2018-07-23T07:01:43.196Z,51.70
2018-07-23T07:04:13.347Z,50.50
2018-07-23T07:06:43.448Z,50.80
2018-07-23T07:09:13.511Z,50.90
2018-07-23T07:11:43.592Z,50.50
2018-07-23T07:14:13.755Z,51.10
2018-07-23T07:16:44.062Z,52.40
2018-07-23T07:19:14.175Z,50.10
2018-07-23T07:21:44.332Z,49.70
2018-07-23T07:24:14.428Z,48.30
2018-07-23T07:26:44.660Z,48.40
2018-07-23T07:29:14.748Z,47.30
2018-07-23T07:34:14.346Z,47.60
2018-07-23T07:36:44.464Z,47.90
2018-07-23T07:39:14.614Z,47.40
2018-07-23T07:41:44.696Z,46.80
2018-07-23T07:44:14.754Z,47.30
2018-07-23T07:46:44.870Z,46.70
2018-07-23T07:49:15.195Z,46.70
2018-07-23T07:51:45.340Z,46.70
2018-07-23T07:54:15.359Z,46.20
2018-07-23T07:56:45.451Z,46.50
2018-07-23T07:59:15.551Z,46.70
2018-07-23T08:01:45.656Z,46.20
2018-07-23T08:04:15.740Z,45.70
2018-07-23T08:06:45.992Z,46.20
2018-07-23T08:09:16.096Z,46.50
2018-07-23T08:11:46.408Z,46.60
2018-07-23T08:14:16.496Z,46.50
2018-07-23T08:19:16.348Z,47.20
2018-07-23T08:21:46.420Z,46.50
2018-07-23T08:24:16.516Z,46.50
2018-07-23T08:26:46.596Z,45.70
2018-07-23T08:29:16.907Z,46.50
2018-07-23T08:31:47.116Z,45.30
2018-07-23T08:34:17.213Z,45.50
2018-07-23T08:36:47.317Z,44.60
2018-07-23T08:39:17.459Z,45.20
2018-07-23T08:41:47.581Z,43.80
2018-07-23T08:44:17.692Z,44.20
2018-07-23T08:46:48.797Z,43.70
2018-07-23T08:49:18.864Z,43.70
2018-07-23T08:51:49.015Z,43.70
2018-07-23T08:54:19.347Z,44.30
2018-07-23T08:56:49.489Z,43.90
2018-07-23T08:59:19.799Z,43.90
2018-07-23T09:04:19.357Z,43.70
2018-07-23T09:06:49.457Z,44.30
2018-07-23T09:09:19.608Z,45.70
2018-07-23T09:11:49.707Z,44.70
2018-07-23T09:14:19.908Z,45.60
2018-07-23T09:16:50.092Z,46.30
2018-07-23T09:19:20.239Z,46.20
2018-07-23T09:21:50.390Z,44.50
2018-07-23T09:24:20.545Z,45.10
2018-07-23T09:26:50.615Z,44.00
2018-07-23T09:29:20.757Z,45.10
2018-07-23T09:31:50.841Z,44.60
2018-07-23T09:34:20.933Z,43.90
2018-07-23T09:39:20.524Z,44.50
2018-07-23T09:41:50.600Z,44.90
2018-07-23T09:44:20.731Z,44.10
2018-07-23T09:49:20.390Z,43.50
2018-07-23T09:51:50.528Z,44.80
2018-07-23T09:54:20.672Z,43.10
2018-07-23T09:59:20.395Z,44.80
2018-07-23T10:01:50.560Z,43.80
2018-07-23T10:04:21.000Z,43.00
2018-07-23T10:06:51.055Z,44.20
2018-07-23T10:09:21.172Z,42.00
2018-07-23T10:11:51.317Z,42.90
2018-07-23T10:14:21.448Z,42.50
2018-07-23T10:16:51.546Z,42.60
2018-07-23T10:19:21.640Z,43.20
2018-07-23T10:21:51.723Z,42.20
2018-07-23T10:24:21.811Z,42.80
2018-07-23T10:29:21.423Z,42.20
2018-07-23T10:31:51.535Z,42.70
2018-07-23T10:34:21.662Z,43.60
2018-07-23T10:36:51.804Z,43.10
2018-07-23T10:39:21.933Z,43.80
2018-07-23T10:41:52.031Z,44.10
2018-07-23T10:44:22.184Z,44.40
2018-07-23T10:46:52.291Z,45.20
2018-07-23T10:49:22.353Z,43.90
2018-07-23T10:51:52.448Z,45.30
2018-07-23T10:54:22.571Z,44.50
2018-07-23T10:56:52.687Z,44.80
2018-07-23T10:59:22.907Z,45.00
2018-07-23T11:01:52.992Z,45.50
2018-07-23T11:04:23.285Z,45.50
2018-07-23T11:06:53.375Z,45.00
2018-07-23T11:09:23.515Z,44.50
2018-07-23T11:11:53.700Z,45.00
2018-07-23T11:14:24.059Z,44.80
2018-07-23T11:16:54.367Z,43.60
2018-07-23T11:19:24.540Z,45.10
2018-07-23T11:21:54.653Z,45.80
2018-07-23T11:24:24.760Z,46.20
2018-07-23T11:26:54.864Z,47.40
2018-07-23T11:29:24.978Z,46.60
2018-07-23T11:31:55.119Z,46.60
2018-07-23T11:34:25.204Z,46.40
2018-07-23T11:36:55.336Z,45.90
2018-07-23T11:39:25.441Z,45.90
2018-07-23T11:41:55.584Z,45.10
2018-07-23T11:44:25.732Z,44.50
2018-07-23T11:46:55.828Z,43.40
2018-07-23T11:49:25.912Z,43.60
2018-07-23T11:51:56.025Z,45.80
2018-07-23T11:54:26.148Z,46.10
2018-07-23T11:56:56.296Z,46.00
2018-07-23T11:59:26.426Z,46.70
2018-07-23T12:01:56.499Z,47.10
2018-07-23T12:04:26.611Z,47.70
2018-07-23T12:06:56.685Z,46.70
2018-07-23T12:09:27.059Z,46.90
2018-07-23T12:11:57.258Z,46.40
2018-07-23T12:14:27.292Z,47.20
2018-07-23T12:16:57.399Z,47.80
2018-07-23T12:19:27.515Z,47.50
2018-07-23T12:21:57.639Z,47.00
2018-07-23T12:24:27.724Z,45.90
2018-07-23T12:26:57.836Z,45.70
2018-07-23T12:29:27.908Z,46.00
2018-07-23T12:31:58.016Z,45.70
2018-07-23T12:34:28.092Z,46.40
2018-07-23T12:36:58.208Z,46.20
2018-07-23T12:39:28.338Z,46.80
2018-07-23T12:41:58.483Z,46.90
2018-07-23T12:44:28.627Z,46.40
2018-07-23T12:46:58.813Z,45.40
2018-07-23T12:49:29.074Z,46.70
2018-07-23T12:51:59.171Z,46.80
2018-07-23T12:54:29.286Z,47.30
2018-07-23T12:56:59.427Z,48.30
2018-07-23T12:59:29.598Z,48.00
2018-07-23T13:01:59.665Z,48.00
2018-07-23T13:04:29.940Z,47.70
2018-07-23T13:07:00.040Z,47.50
2018-07-23T13:09:30.173Z,47.60
2018-07-23T13:12:00.304Z,46.70
2018-07-23T13:14:30.405Z,46.40
2018-07-23T13:17:00.490Z,46.50
2018-07-23T13:19:30.627Z,46.10
2018-07-23T13:22:00.696Z,45.00
2018-07-23T13:24:30.856Z,44.50
2018-07-23T13:27:01.003Z,44.00
2018-07-23T13:29:31.263Z,45.60
2018-07-23T13:32:01.356Z,46.50
2018-07-23T13:34:31.523Z,46.70
2018-07-23T13:37:01.644Z,47.00
2018-07-23T13:39:31.763Z,47.60
2018-07-23T13:42:01.888Z,48.30
2018-07-23T13:44:32.137Z,48.50
2018-07-23T13:47:02.209Z,48.40
2018-07-23T13:49:32.393Z,47.80
2018-07-23T13:52:02.489Z,47.40
2018-07-23T13:54:32.612Z,46.60
2018-07-23T13:57:02.708Z,46.60
2018-07-23T13:59:32.823Z,47.10
2018-07-23T14:02:02.904Z,47.00
2018-07-23T14:04:33.059Z,47.70
2018-07-23T14:07:03.152Z,48.10
2018-07-23T14:09:33.240Z,47.40
2018-07-23T14:12:03.402Z,47.40
2018-07-23T14:14:33.454Z,48.30
2018-07-23T14:17:03.624Z,48.40
2018-07-23T14:19:33.686Z,49.10
2018-07-23T14:22:03.869Z,49.80
2018-07-23T14:24:33.936Z,49.70
2018-07-23T14:27:04.065Z,50.00
2018-07-23T14:29:34.117Z,49.80
2018-07-23T14:32:04.241Z,49.90
2018-07-23T14:34:34.394Z,49.50
2018-07-23T14:37:04.455Z,49.10
2018-07-23T14:39:34.572Z,49.60
2018-07-23T14:42:04.640Z,49.60
2018-07-23T14:44:34.784Z,49.20
2018-07-23T14:47:05.180Z,49.60
2018-07-23T14:49:35.265Z,50.90
2018-07-23T14:52:05.439Z,51.60
2018-07-23T14:54:35.499Z,51.80
2018-07-23T14:57:05.679Z,51.10
2018-07-23T14:59:35.757Z,51.10
2018-07-23T15:02:06.101Z,51.10
2018-07-23T15:04:36.180Z,51.30
2018-07-23T15:07:06.639Z,51.60
2018-07-23T15:09:37.435Z,51.00
2018-07-23T15:12:07.540Z,51.50
2018-07-23T15:14:37.655Z,51.60
2018-07-23T15:17:07.776Z,52.80
2018-07-23T15:19:37.879Z,52.40
2018-07-23T15:22:08.060Z,52.50
2018-07-23T15:24:38.136Z,54.00
2018-07-23T15:27:08.424Z,54.30
2018-07-23T15:29:38.527Z,54.60
2018-07-23T15:32:08.620Z,55.10
2018-07-23T15:34:38.707Z,55.70
2018-07-23T15:37:08.788Z,55.80
2018-07-23T15:39:38.868Z,55.80
2018-07-23T15:42:09.024Z,54.60
2018-07-23T15:44:39.447Z,53.90
2018-07-23T15:47:09.275Z,54.20
2018-07-23T15:49:39.489Z,54.50
2018-07-23T15:52:09.608Z,55.00
2018-07-23T15:54:39.711Z,55.60
2018-07-23T15:57:09.841Z,55.30
2018-07-23T16:02:09.395Z,56.10
2018-07-23T16:04:39.515Z,57.00
2018-07-23T16:07:09.584Z,56.90
2018-07-23T16:09:39.703Z,57.50
2018-07-23T16:12:09.992Z,57.50
2018-07-23T16:14:40.032Z,57.90
2018-07-23T16:17:10.187Z,58.60
2018-07-23T16:19:40.267Z,59.00
2018-07-23T16:22:10.363Z,58.70
2018-07-23T16:24:40.515Z,58.60
2018-07-23T16:27:10.627Z,58.30
2018-07-23T16:29:40.751Z,58.80
2018-07-23T16:32:11.247Z,59.10
2018-07-23T16:34:41.363Z,59.50
2018-07-23T16:39:41.043Z,59.30
2018-07-23T16:42:11.122Z,59.20
2018-07-23T16:44:41.143Z,59.60
2018-07-23T16:47:11.251Z,59.60
2018-07-23T16:52:10.839Z,59.00
2018-07-23T16:54:40.936Z,59.00
2018-07-23T16:57:10.977Z,59.30
2018-07-23T16:59:41.080Z,58.90
2018-07-23T17:02:11.253Z,59.30
2018-07-23T17:04:41.347Z,59.20
2018-07-23T17:07:11.580Z,59.10
2018-07-23T17:09:41.548Z,59.30
2018-07-23T17:12:11.643Z,59.30
2018-07-23T17:17:11.323Z,58.90
2018-07-23T17:19:41.736Z,59.20
2018-07-23T17:22:11.819Z,59.10
2018-07-23T17:24:41.912Z,59.30
2018-07-23T17:27:11.997Z,59.00
2018-07-23T17:29:42.107Z,59.00
2018-07-23T17:32:12.191Z,59.40
2018-07-23T17:34:42.304Z,59.30
2018-07-23T17:37:12.446Z,59.50
2018-07-23T17:39:42.528Z,59.80
2018-07-23T17:42:12.585Z,59.90
2018-07-23T17:44:42.685Z,60.30
2018-07-23T17:47:12.951Z,60.60
2018-07-23T17:49:43.133Z,61.00
2018-07-23T17:54:42.748Z,62.20
2018-07-23T17:57:12.845Z,61.80
2018-07-23T17:59:43.106Z,62.80
2018-07-23T18:02:13.179Z,62.40
2018-07-23T18:04:43.289Z,62.80
2018-07-23T18:07:13.471Z,62.90
2018-07-23T18:09:43.595Z,63.50
2018-07-23T18:12:13.654Z,63.90
2018-07-23T18:14:43.847Z,64.10
2018-07-23T18:17:13.895Z,64.50
2018-07-23T18:19:44.015Z,64.90
2018-07-23T18:22:14.195Z,64.40
2018-07-23T18:27:13.894Z,64.80
2018-07-23T18:29:44.088Z,65.10
2018-07-23T18:32:14.191Z,65.40
2018-07-23T18:34:44.721Z,65.10
2018-07-23T18:37:14.815Z,65.50
2018-07-23T18:39:44.948Z,66.40
2018-07-23T18:42:15.167Z,66.40
2018-07-23T18:44:45.285Z,66.30
2018-07-23T18:47:15.386Z,67.00
2018-07-23T18:49:54.515Z,66.70
2018-07-23T18:52:25.464Z,67.20
2018-07-23T18:54:57.191Z,67.30
2018-07-23T18:57:27.357Z,67.10
2018-07-23T18:59:57.624Z,67.40
2018-07-23T19:02:27.749Z,67.50
2018-07-23T19:04:57.842Z,67.60
2018-07-23T19:07:27.895Z,67.50
2018-07-23T19:09:58.107Z,67.70
2018-07-23T19:12:28.199Z,68.00
2018-07-23T19:17:27.748Z,68.10
2018-07-23T19:19:57.872Z,68.60
2018-07-23T19:22:27.947Z,68.60
2018-07-23T19:24:57.977Z,69.80
2018-07-23T19:27:28.128Z,69.30
2018-07-23T19:29:58.188Z,69.20
2018-07-23T19:32:28.284Z,69.20
2018-07-23T19:34:58.395Z,69.80
2018-07-23T19:37:28.483Z,69.40
2018-07-23T19:39:58.592Z,69.70
2018-07-23T19:42:28.677Z,70.00
2018-07-23T19:44:58.768Z,70.10
2018-07-23T19:47:28.968Z,69.80
2018-07-23T19:49:59.049Z,69.60
2018-07-23T19:52:29.147Z,70.10
2018-07-23T19:54:59.211Z,70.20
2018-07-23T19:57:29.242Z,69.80
2018-07-23T19:59:59.315Z,70.30
2018-07-23T20:02:29.378Z,70.50
2018-07-23T20:04:59.497Z,71.10
2018-07-23T20:07:29.460Z,70.80
2018-07-23T20:09:59.507Z,70.90
2018-07-23T20:12:29.603Z,70.80
2018-07-23T20:14:59.787Z,71.10
2018-07-23T20:17:29.839Z,71.20
2018-07-23T20:19:59.895Z,71.00
2018-07-23T20:22:29.899Z,70.90
2018-07-23T20:24:59.983Z,70.90
2018-07-23T20:27:29.989Z,70.70
2018-07-23T20:30:00.077Z,71.00
2018-07-23T20:32:30.153Z,70.90
2018-07-23T20:37:29.747Z,71.20
2018-07-23T20:39:59.739Z,71.30
2018-07-23T20:42:29.815Z,71.00
2018-07-23T20:44:59.880Z,70.90
2018-07-23T20:47:29.958Z,71.50
2018-07-23T20:52:29.508Z,71.10
2018-07-23T20:54:59.606Z,71.80
2018-07-23T20:57:29.647Z,72.20
2018-07-23T20:59:59.991Z,71.80
2018-07-23T21:02:30.032Z,71.90
2018-07-23T21:05:00.056Z,72.20
2018-07-23T21:07:30.156Z,72.40
2018-07-23T21:10:00.211Z,72.50
2018-07-23T21:12:30.323Z,72.50
2018-07-23T21:15:00.377Z,73.10
2018-07-23T21:17:30.547Z,73.30
2018-07-23T21:22:30.076Z,73.30
2018-07-23T21:25:00.196Z,73.80
2018-07-23T21:27:30.303Z,74.20
2018-07-23T21:30:00.356Z,74.40
2018-07-23T21:32:30.542Z,74.90
2018-07-23T21:35:00.616Z,74.80
2018-07-23T21:37:30.740Z,75.30
2018-07-23T21:40:00.744Z,75.00
2018-07-23T21:42:30.876Z,75.00
2018-07-23T21:47:30.419Z,75.10
2018-07-23T21:50:00.496Z,75.30
2018-07-23T21:52:30.547Z,75.00
2018-07-23T21:57:30.132Z,74.90
2018-07-23T22:00:00.198Z,74.90
2018-07-23T22:02:30.242Z,75.10
2018-07-23T22:05:00.324Z,74.80
2018-07-23T22:07:30.328Z,75.10
2018-07-23T22:12:29.851Z,75.90
2018-07-23T22:14:59.944Z,75.40
2018-07-23T22:17:30.024Z,76.00
2018-07-23T22:20:00.069Z,76.10
2018-07-23T22:22:30.142Z,76.40
2018-07-23T22:25:00.327Z,76.40
2018-07-23T22:27:30.307Z,76.80
2018-07-23T22:30:00.367Z,76.70
2018-07-23T22:32:30.435Z,76.80
2018-07-23T22:37:29.940Z,76.50
2018-07-23T22:40:00.020Z,76.90
2018-07-23T22:42:31.780Z,76.90
2018-07-23T22:45:01.892Z,76.90
2018-07-23T22:47:31.880Z,77.00
2018-07-23T22:50:01.936Z,77.40
2018-07-23T22:52:31.989Z,77.10
2018-07-23T22:55:02.079Z,77.00
2018-07-23T22:57:32.173Z,76.80
2018-07-23T23:00:02.182Z,76.30
2018-07-23T23:02:32.207Z,76.90
2018-07-23T23:05:02.247Z,76.60
2018-07-23T23:07:32.289Z,76.30
2018-07-23T23:10:02.285Z,76.60
2018-07-23T23:12:32.331Z,76.30
2018-07-23T23:15:02.427Z,76.10
2018-07-23T23:17:32.480Z,76.40
2018-07-23T23:20:02.567Z,75.90
2018-07-23T23:22:32.607Z,75.90
2018-07-23T23:25:02.607Z,76.20
2018-07-23T23:27:32.594Z,76.50
2018-07-23T23:30:02.660Z,76.10
2018-07-23T23:32:32.700Z,76.10
2018-07-23T23:35:02.823Z,75.90
2018-07-23T23:37:32.791Z,76.20
2018-07-23T23:40:02.852Z,76.10
2018-07-23T23:42:32.851Z,76.00
2018-07-23T23:45:02.912Z,75.90
2018-07-23T23:47:32.900Z,75.80
2018-07-23T23:50:02.975Z,75.80
2018-07-23T23:52:33.015Z,75.50
2018-07-23T23:55:03.084Z,75.70
2018-07-23T23:57:33.431Z,75.50
